createdAt,value
2022-10-14T00:01:12.071Z,98.80
2022-10-14T00:03:18.072Z,98.70
2022-10-14T00:05:22.026Z,98.60
2022-10-14T00:07:31.323Z,98.80
2022-10-14T00:09:36.112Z,98.80
2022-10-14T00:11:44.130Z,98.70
2022-10-14T00:13:50.068Z,98.80
2022-10-14T00:15:53.881Z,98.70
2022-10-14T00:17:58.367Z,98.50
2022-10-14T00:20:04.376Z,98.60
2022-10-14T00:22:11.037Z,98.60
2022-10-14T00:24:15.580Z,98.70
2022-10-14T00:26:22.355Z,98.50
2022-10-14T00:28:29.212Z,98.50
2022-10-14T00:30:33.050Z,98.40
2022-10-14T00:32:40.604Z,98.20
2022-10-14T00:34:48.056Z,98.00
2022-10-14T00:36:52.096Z,98.00
2022-10-14T00:38:57.804Z,97.40
2022-10-14T00:41:03.838Z,97.30
2022-10-14T00:43:11.201Z,97.10
2022-10-14T00:45:21.889Z,97.00
2022-10-14T00:47:25.935Z,97.10
2022-10-14T00:49:38.044Z,97.20
2022-10-14T00:51:45.002Z,97.30
2022-10-14T00:53:50.787Z,97.30
2022-10-14T00:55:54.968Z,97.20
2022-10-14T00:58:02.150Z,97.30
2022-10-14T01:00:08.210Z,97.30
2022-10-14T01:02:12.111Z,97.10
2022-10-14T01:04:18.544Z,97.00
2022-10-14T01:06:24.662Z,96.60
2022-10-14T01:08:32.619Z,96.50
2022-10-14T01:10:38.639Z,96.40
2022-10-14T01:12:44.902Z,95.50
2022-10-14T01:15:10.198Z,95.40
2022-10-14T01:17:16.878Z,95.20
2022-10-14T01:19:33.319Z,95.10
2022-10-14T01:21:48.277Z,95.00
2022-10-14T01:24:06.468Z,94.90
2022-10-14T01:26:22.573Z,95.30
2022-10-14T01:28:34.761Z,94.60
2022-10-14T01:30:43.066Z,94.90
2022-10-14T01:33:01.129Z,94.90
2022-10-14T01:35:17.298Z,95.30
2022-10-14T01:37:28.551Z,94.40
2022-10-14T01:39:33.250Z,94.30
2022-10-14T01:41:43.003Z,94.40
2022-10-14T01:43:51.425Z,93.20
2022-10-14T01:45:55.335Z,93.10
2022-10-14T01:47:59.272Z,93.30
2022-10-14T01:50:09.575Z,92.40
2022-10-14T01:52:15.584Z,92.10
2022-10-14T01:54:20.606Z,92.50
2022-10-14T01:56:28.541Z,92.90
2022-10-14T01:58:34.477Z,94.00
2022-10-14T02:00:39.436Z,93.60
2022-10-14T02:02:48.228Z,94.10
2022-10-14T02:04:52.500Z,93.50
2022-10-14T02:07:04.121Z,94.00
2022-10-14T02:09:14.384Z,93.20
2022-10-14T02:11:22.037Z,93.70
2022-10-14T02:13:45.871Z,92.70
2022-10-14T02:15:53.027Z,91.40
2022-10-14T02:18:03.039Z,91.40
2022-10-14T02:20:08.782Z,88.30
2022-10-14T02:22:25.331Z,87.30
2022-10-14T02:24:32.655Z,88.20
2022-10-14T02:26:36.437Z,87.90
2022-10-14T02:28:45.815Z,87.20
2022-10-14T02:30:53.717Z,86.30
2022-10-14T02:32:58.914Z,85.40
2022-10-14T02:35:07.869Z,85.50
2022-10-14T02:37:12.297Z,83.90
2022-10-14T02:39:17.084Z,83.60
2022-10-14T02:41:24.555Z,82.70
2022-10-14T02:43:28.256Z,82.50
2022-10-14T02:45:32.728Z,81.80
2022-10-14T02:47:39.803Z,81.70
2022-10-14T02:49:43.822Z,80.50
2022-10-14T02:51:51.306Z,82.10
2022-10-14T02:54:03.808Z,82.30
2022-10-14T02:56:10.082Z,81.80
2022-10-14T02:58:16.354Z,82.30
2022-10-14T03:00:24.307Z,81.00
2022-10-14T03:02:29.440Z,81.60
2022-10-14T03:04:36.488Z,81.80
2022-10-14T03:06:42.771Z,82.70
2022-10-14T03:08:48.273Z,82.60
2022-10-14T03:10:52.687Z,82.70
2022-10-14T03:12:58.649Z,83.80
2022-10-14T03:15:11.732Z,83.50
2022-10-14T03:17:16.914Z,81.90
2022-10-14T03:19:26.176Z,82.60
2022-10-14T03:21:33.145Z,81.60
2022-10-14T03:23:37.208Z,82.20
2022-10-14T03:25:45.372Z,82.00
2022-10-14T03:28:01.973Z,81.90
2022-10-14T03:30:19.355Z,82.30
2022-10-14T03:32:34.920Z,81.20
2022-10-14T03:34:50.978Z,82.60
2022-10-14T03:37:02.955Z,79.70
2022-10-14T03:39:12.907Z,81.50
2022-10-14T03:41:29.853Z,83.80
2022-10-14T03:43:37.231Z,82.40
2022-10-14T03:45:42.491Z,82.00
2022-10-14T03:47:51.268Z,81.30
2022-10-14T03:49:55.454Z,80.10
2022-10-14T03:52:05.805Z,81.50
2022-10-14T03:54:12.079Z,82.80
2022-10-14T03:56:16.273Z,82.20
2022-10-14T03:58:21.404Z,82.70
2022-10-14T04:00:32.538Z,80.10
2022-10-14T04:02:56.096Z,79.10
2022-10-14T04:05:14.338Z,78.20
2022-10-14T04:07:20.923Z,78.50
2022-10-14T04:09:30.199Z,79.30
2022-10-14T04:11:35.969Z,78.70
2022-10-14T04:13:46.707Z,77.60
2022-10-14T04:15:50.734Z,78.30
2022-10-14T04:18:00.077Z,76.30
2022-10-14T04:20:05.115Z,75.60
2022-10-14T04:22:11.114Z,76.40
2022-10-14T04:24:17.689Z,77.50
2022-10-14T04:26:29.922Z,75.40
2022-10-14T04:28:35.075Z,75.50
2022-10-14T04:30:55.124Z,76.70
2022-10-14T04:33:03.773Z,75.60
2022-10-14T04:35:08.308Z,74.60
2022-10-14T04:37:16.405Z,74.80
2022-10-14T04:39:26.510Z,75.00
2022-10-14T04:41:30.405Z,74.80
2022-10-14T04:43:39.941Z,74.50
2022-10-14T04:46:06.796Z,74.50
2022-10-14T04:48:12.293Z,75.50
2022-10-14T04:50:23.777Z,73.40
2022-10-14T04:52:46.192Z,73.40
2022-10-14T04:54:50.870Z,73.10
2022-10-14T04:57:03.799Z,73.10
2022-10-14T04:59:08.974Z,73.90
2022-10-14T05:01:38.969Z,73.00
2022-10-14T05:03:46.360Z,73.80
2022-10-14T05:05:51.560Z,74.20
2022-10-14T05:07:57.017Z,75.30
2022-10-14T05:10:16.551Z,74.00
2022-10-14T05:12:20.909Z,72.30
2022-10-14T05:14:30.924Z,73.50
2022-10-14T05:16:47.791Z,73.40
2022-10-14T05:18:58.183Z,74.50
2022-10-14T05:21:04.284Z,73.70
2022-10-14T05:23:29.864Z,74.80
2022-10-14T05:25:36.264Z,73.90
2022-10-14T05:27:40.987Z,73.30
2022-10-14T05:29:46.131Z,74.40
2022-10-14T05:31:50.648Z,72.40
2022-10-14T05:34:18.431Z,73.90
2022-10-14T05:36:23.375Z,73.40
2022-10-14T05:38:27.965Z,72.30
2022-10-14T05:40:31.878Z,72.30
2022-10-14T05:42:41.913Z,72.90
2022-10-14T05:44:46.672Z,73.40
2022-10-14T05:46:51.362Z,73.00
2022-10-14T05:49:03.379Z,73.20
2022-10-14T05:51:08.987Z,72.50
2022-10-14T05:53:14.246Z,73.20
2022-10-14T05:55:23.416Z,73.20
2022-10-14T05:57:29.636Z,73.60
2022-10-14T05:59:35.688Z,73.80
2022-10-14T06:01:41.984Z,73.90
2022-10-14T06:03:45.991Z,72.50
2022-10-14T06:05:50.047Z,71.40
2022-10-14T06:07:54.482Z,71.70
2022-10-14T06:09:58.772Z,72.70
2022-10-14T06:12:02.642Z,71.70
2022-10-14T06:14:11.043Z,71.50
2022-10-14T06:16:15.453Z,70.70
2022-10-14T06:18:19.913Z,70.30
2022-10-14T06:20:24.502Z,70.70
2022-10-14T06:22:29.379Z,69.90
2022-10-14T06:24:33.182Z,68.20
2022-10-14T06:26:37.153Z,69.30
2022-10-14T06:28:40.966Z,69.70
2022-10-14T06:30:49.997Z,70.50
2022-10-14T06:32:54.901Z,71.20
2022-10-14T06:34:59.226Z,68.90
2022-10-14T06:37:03.674Z,69.50
2022-10-14T06:39:07.745Z,69.30
2022-10-14T06:41:11.513Z,69.90
2022-10-14T06:43:15.456Z,70.20
2022-10-14T06:45:26.987Z,69.60
2022-10-14T06:47:31.225Z,70.20
2022-10-14T06:49:35.723Z,70.10
2022-10-14T06:51:44.013Z,68.00
2022-10-14T06:53:47.899Z,70.50
2022-10-14T06:55:58.077Z,69.80
2022-10-14T06:58:02.398Z,69.40
2022-10-14T07:00:06.794Z,70.70
2022-10-14T07:02:13.453Z,70.50
2022-10-14T07:04:20.065Z,70.80
2022-10-14T07:06:24.216Z,68.70
2022-10-14T07:08:28.279Z,70.40
2022-10-14T07:10:32.969Z,69.80
2022-10-14T07:12:37.309Z,70.00
2022-10-14T07:14:41.628Z,70.00
2022-10-14T07:16:47.837Z,70.80
2022-10-14T07:18:51.915Z,70.70
2022-10-14T07:20:58.079Z,70.60
2022-10-14T07:23:04.490Z,70.70
2022-10-14T07:25:10.278Z,71.30
2022-10-14T07:27:17.010Z,71.80
2022-10-14T07:29:25.819Z,71.10
2022-10-14T07:31:30.958Z,71.80
2022-10-14T07:35:51.176Z,72.00
2022-10-14T07:37:55.638Z,71.70
2022-10-14T07:40:00.579Z,72.10
2022-10-14T07:42:07.757Z,72.70
2022-10-14T07:44:13.896Z,72.30
2022-10-14T07:46:29.168Z,72.80
2022-10-14T07:48:55.947Z,70.90
2022-10-14T07:51:01.554Z,72.00
2022-10-14T07:53:05.497Z,73.60
2022-10-14T07:55:12.019Z,73.30
2022-10-14T07:57:18.389Z,73.30
2022-10-14T07:59:23.188Z,74.50
2022-10-14T08:01:31.284Z,74.40
2022-10-14T08:03:35.737Z,73.00
2022-10-14T08:05:40.271Z,73.20
2022-10-14T08:07:49.720Z,72.30
2022-10-14T08:09:54.713Z,72.90
2022-10-14T08:12:01.794Z,73.30
2022-10-14T08:14:09.802Z,72.70
2022-10-14T08:16:20.306Z,72.60
2022-10-14T08:18:25.395Z,72.50
2022-10-14T08:20:35.680Z,73.60
2022-10-14T08:22:39.836Z,74.00
2022-10-14T08:24:45.416Z,74.40
2022-10-14T08:26:54.024Z,74.70
2022-10-14T08:28:59.334Z,74.50
2022-10-14T08:31:03.133Z,75.30
2022-10-14T08:33:12.481Z,74.10
2022-10-14T08:35:17.306Z,73.40
2022-10-14T08:37:21.503Z,73.60
2022-10-14T08:39:26.527Z,73.50
2022-10-14T08:41:30.876Z,73.30
2022-10-14T08:43:37.995Z,72.60
2022-10-14T08:45:51.236Z,72.50
2022-10-14T08:47:56.922Z,73.00
2022-10-14T08:50:03.151Z,73.70
2022-10-14T08:52:21.231Z,73.70
2022-10-14T08:54:44.047Z,74.00
2022-10-14T08:56:48.310Z,74.40
2022-10-14T08:58:58.570Z,74.90
2022-10-14T09:01:13.496Z,75.20
2022-10-14T09:03:19.895Z,75.80
2022-10-14T09:05:28.735Z,75.90
2022-10-14T09:07:33.354Z,75.70
2022-10-14T09:09:37.399Z,76.50
2022-10-14T09:11:47.584Z,76.70
2022-10-14T09:13:56.813Z,77.50
2022-10-14T09:16:09.598Z,77.50
2022-10-14T09:18:36.168Z,77.30
2022-10-14T09:20:40.394Z,77.50
2022-10-14T09:22:48.319Z,78.50
2022-10-14T09:24:56.527Z,78.60
2022-10-14T09:27:06.360Z,78.80
2022-10-14T09:29:21.734Z,78.80
2022-10-14T09:31:29.983Z,79.10
2022-10-14T09:33:38.279Z,78.90
2022-10-14T09:35:45.302Z,78.80
2022-10-14T09:37:53.595Z,79.40
2022-10-14T09:40:00.585Z,80.60
2022-10-14T09:42:04.504Z,80.10
2022-10-14T09:44:21.587Z,80.10
2022-10-14T09:46:25.765Z,79.90
2022-10-14T09:48:40.169Z,80.50
2022-10-14T09:50:53.126Z,80.30
2022-10-14T09:53:09.322Z,81.00
2022-10-14T09:55:19.358Z,81.10
2022-10-14T09:57:27.664Z,81.60
2022-10-14T09:59:31.781Z,81.80
2022-10-14T10:01:40.120Z,82.00
2022-10-14T10:03:49.295Z,81.30
2022-10-14T10:06:26.761Z,81.40
2022-10-14T10:08:30.568Z,80.90
2022-10-14T10:10:40.381Z,80.40
2022-10-14T10:12:48.172Z,80.20
2022-10-14T10:14:58.942Z,80.20
2022-10-14T10:17:10.791Z,80.20
2022-10-14T10:19:33.673Z,80.60
2022-10-14T10:21:38.486Z,81.20
2022-10-14T10:23:51.638Z,82.30
2022-10-14T10:25:55.923Z,81.70
2022-10-14T10:28:00.583Z,81.70
2022-10-14T10:30:21.981Z,82.30
2022-10-14T10:32:25.766Z,82.40
2022-10-14T10:34:32.610Z,82.90
2022-10-14T10:36:38.905Z,82.90
2022-10-14T10:38:50.619Z,83.10
2022-10-14T10:40:59.779Z,83.40
2022-10-14T10:43:22.118Z,83.60
2022-10-14T10:45:42.206Z,83.70
2022-10-14T10:47:49.620Z,83.70
2022-10-14T10:50:14.546Z,84.30
2022-10-14T10:52:31.493Z,85.20
2022-10-14T10:54:42.965Z,86.00
2022-10-14T10:56:53.474Z,85.90
2022-10-14T10:58:59.668Z,85.90
2022-10-14T11:01:16.997Z,86.00
2022-10-14T11:03:33.359Z,86.40
2022-10-14T11:05:52.709Z,86.20
2022-10-14T11:08:21.175Z,87.00
2022-10-14T11:10:45.880Z,87.90
2022-10-14T11:12:53.926Z,89.00
2022-10-14T11:15:07.405Z,89.20
2022-10-14T11:17:22.157Z,89.70
2022-10-14T11:19:30.934Z,90.00
2022-10-14T11:21:54.963Z,90.30
2022-10-14T11:24:09.352Z,90.20
2022-10-14T11:26:32.413Z,90.00
2022-10-14T11:28:41.894Z,90.00
2022-10-14T11:31:00.175Z,90.00
2022-10-14T11:33:04.276Z,90.10
2022-10-14T11:35:10.910Z,90.20
2022-10-14T11:37:24.927Z,90.50
2022-10-14T11:39:36.035Z,90.70
2022-10-14T11:41:42.358Z,90.80
2022-10-14T11:43:50.072Z,90.90
2022-10-14T11:46:01.868Z,90.80
2022-10-14T11:48:12.406Z,90.70
2022-10-14T11:50:21.514Z,90.70
2022-10-14T11:52:36.724Z,90.80
2022-10-14T11:54:55.248Z,90.90
2022-10-14T11:57:04.871Z,90.90
2022-10-14T11:59:41.642Z,91.20
2022-10-14T12:01:45.956Z,91.10
2022-10-14T12:03:55.626Z,91.20
2022-10-14T12:06:13.267Z,91.30
2022-10-14T12:08:30.429Z,91.50
2022-10-14T12:10:41.003Z,91.50
2022-10-14T12:12:46.251Z,91.50
2022-10-14T12:14:56.302Z,91.60
2022-10-14T12:17:00.366Z,91.60
2022-10-14T12:19:04.440Z,91.60
2022-10-14T12:21:16.854Z,91.80
2022-10-14T12:23:39.792Z,91.70
2022-10-14T12:26:04.752Z,91.60
2022-10-14T12:28:20.222Z,91.60
2022-10-14T12:30:30.785Z,91.70
2022-10-14T12:32:35.152Z,91.70
2022-10-14T12:34:42.594Z,91.80
2022-10-14T12:36:49.537Z,91.90
2022-10-14T12:39:23.003Z,92.10
2022-10-14T12:41:44.712Z,92.10
2022-10-14T12:44:02.218Z,92.20
2022-10-14T12:46:15.769Z,92.20
2022-10-14T12:48:22.404Z,92.40
2022-10-14T12:50:33.401Z,92.20
2022-10-14T12:52:38.141Z,92.20
2022-10-14T12:54:46.880Z,92.20
2022-10-14T12:57:04.448Z,92.20
2022-10-14T12:59:09.563Z,92.30
2022-10-14T13:01:17.621Z,92.50
2022-10-14T13:03:23.378Z,92.40
2022-10-14T13:05:38.299Z,92.40
2022-10-14T13:07:46.519Z,92.40
2022-10-14T13:09:55.012Z,92.60
2022-10-14T13:11:59.181Z,92.80
2022-10-14T13:14:03.858Z,92.70
2022-10-14T13:16:12.016Z,92.70
2022-10-14T13:18:42.367Z,92.80
2022-10-14T13:20:47.364Z,92.80
2022-10-14T13:22:54.009Z,92.70
2022-10-14T13:25:17.774Z,92.70
2022-10-14T13:27:31.088Z,92.70
2022-10-14T13:29:49.369Z,92.90
2022-10-14T13:31:57.448Z,93.00
2022-10-14T13:34:14.328Z,93.20
2022-10-14T13:36:46.184Z,93.60
2022-10-14T13:38:54.474Z,93.80
2022-10-14T13:41:00.722Z,93.70
2022-10-14T13:43:29.064Z,93.90
2022-10-14T13:45:43.041Z,93.60
2022-10-14T13:47:52.613Z,93.60
2022-10-14T13:49:58.650Z,93.70
2022-10-14T13:52:06.998Z,93.80
2022-10-14T13:54:13.232Z,93.80
2022-10-14T13:56:21.068Z,93.50
2022-10-14T13:58:26.368Z,93.40
2022-10-14T14:00:40.536Z,93.40
2022-10-14T14:02:51.469Z,93.50
2022-10-14T14:05:03.659Z,93.30
2022-10-14T14:07:47.285Z,93.60
2022-10-14T14:09:35.838Z,93.80
2022-10-14T14:11:39.719Z,93.90
2022-10-14T14:13:54.482Z,93.90
2022-10-14T14:16:02.672Z,94.00
2022-10-14T14:18:08.232Z,94.00
2022-10-14T14:20:16.452Z,94.00
2022-10-14T14:22:28.374Z,94.00
2022-10-14T14:24:35.088Z,94.10
2022-10-14T14:26:40.722Z,94.20
2022-10-14T14:28:52.465Z,94.30
2022-10-14T14:30:56.844Z,94.40
2022-10-14T14:33:01.455Z,94.50
2022-10-14T14:35:05.558Z,94.40
2022-10-14T14:39:36.202Z,94.60
2022-10-14T14:41:40.005Z,94.60
2022-10-14T14:43:50.121Z,94.60
2022-10-14T14:46:03.535Z,94.50
2022-10-14T14:48:09.887Z,94.40
2022-10-14T14:50:31.433Z,94.20
2022-10-14T14:52:38.545Z,94.20
2022-10-14T14:54:46.943Z,94.20
2022-10-14T14:56:56.056Z,94.30
2022-10-14T14:59:04.212Z,94.40
2022-10-14T15:01:08.244Z,94.50
2022-10-14T15:03:14.710Z,94.70
2022-10-14T15:05:22.874Z,94.80
2022-10-14T15:07:28.951Z,95.10
2022-10-14T15:09:55.188Z,95.10
2022-10-14T15:12:02.426Z,95.30
2022-10-14T15:14:08.299Z,95.40
2022-10-14T15:16:12.615Z,95.60
2022-10-14T15:18:25.582Z,95.80
2022-10-14T15:20:38.992Z,95.90
2022-10-14T15:22:48.133Z,96.10
2022-10-14T15:25:20.699Z,96.10
2022-10-14T15:27:33.730Z,96.10
2022-10-14T15:29:40.382Z,96.20
2022-10-14T15:31:45.946Z,96.10
2022-10-14T15:33:52.220Z,96.10
2022-10-14T15:35:58.869Z,96.00
2022-10-14T15:38:05.202Z,95.90
2022-10-14T15:40:15.261Z,95.80
2022-10-14T15:42:19.946Z,95.90
2022-10-14T15:44:26.021Z,96.00
2022-10-14T15:46:48.767Z,96.00
2022-10-14T15:48:53.514Z,95.90
2022-10-14T15:50:59.470Z,95.80
2022-10-14T15:53:05.621Z,95.80
2022-10-14T15:55:18.409Z,95.80
2022-10-14T15:57:24.789Z,95.80
2022-10-14T15:59:31.746Z,95.80
2022-10-14T16:01:36.326Z,95.80
2022-10-14T16:03:43.044Z,95.80
2022-10-14T16:05:50.542Z,95.80
2022-10-14T16:07:54.603Z,95.80
2022-10-14T16:10:00.648Z,96.00
2022-10-14T16:12:07.349Z,96.00
2022-10-14T16:14:13.511Z,96.10
2022-10-14T16:16:19.818Z,96.00
2022-10-14T16:18:27.558Z,96.30
2022-10-14T16:20:34.017Z,96.40
2022-10-14T16:22:39.928Z,96.00
2022-10-14T16:24:45.951Z,95.70
2022-10-14T16:26:52.727Z,95.60
2022-10-14T16:28:58.541Z,95.80
2022-10-14T16:31:07.226Z,96.10
2022-10-14T16:35:17.519Z,94.90
2022-10-14T16:37:24.252Z,94.20
2022-10-14T16:39:28.262Z,93.80
2022-10-14T16:41:34.323Z,94.30
2022-10-14T16:43:40.312Z,94.10
2022-10-14T16:45:44.713Z,93.90
2022-10-14T16:47:49.931Z,93.60
2022-10-14T16:49:56.611Z,93.70
2022-10-14T16:52:00.349Z,93.90
2022-10-14T16:54:06.302Z,93.00
2022-10-14T16:56:34.697Z,93.30
2022-10-14T16:58:38.548Z,93.40
2022-10-14T17:00:45.036Z,93.60
2022-10-14T17:02:51.636Z,93.60
2022-10-14T17:04:56.348Z,93.50
2022-10-14T17:07:08.177Z,93.40
2022-10-14T17:09:14.416Z,93.40
2022-10-14T17:11:18.623Z,93.70
2022-10-14T17:13:24.570Z,93.80
2022-10-14T17:15:30.629Z,93.70
2022-10-14T17:17:35.036Z,93.60
2022-10-14T17:19:41.004Z,93.60
2022-10-14T17:21:47.131Z,93.70
2022-10-14T17:23:50.871Z,93.60
2022-10-14T17:25:56.798Z,93.40
2022-10-14T17:30:11.474Z,92.80
2022-10-14T17:32:19.404Z,92.50
2022-10-14T17:34:23.705Z,92.50
2022-10-14T17:36:31.775Z,93.30
2022-10-14T17:38:37.760Z,93.30
2022-10-14T17:40:43.819Z,93.50
2022-10-14T17:42:47.548Z,93.10
2022-10-14T17:44:51.301Z,93.40
2022-10-14T17:46:58.231Z,93.00
2022-10-14T17:49:02.378Z,93.40
2022-10-14T17:51:06.771Z,93.30
2022-10-14T17:53:15.685Z,92.90
2022-10-14T17:55:19.871Z,92.70
2022-10-14T17:57:23.878Z,92.60
2022-10-14T17:59:32.778Z,92.40
2022-10-14T18:01:37.631Z,92.10
2022-10-14T18:03:56.389Z,91.80
2022-10-14T18:06:04.342Z,91.90
2022-10-14T18:08:11.597Z,91.90
2022-10-14T18:10:15.546Z,92.10
2022-10-14T18:12:24.097Z,92.30
2022-10-14T18:14:27.941Z,92.40
2022-10-14T18:16:34.375Z,92.10
2022-10-14T18:18:40.512Z,91.70
2022-10-14T18:20:44.826Z,91.40
2022-10-14T18:22:48.544Z,91.50
2022-10-14T18:24:56.956Z,91.40
2022-10-14T18:27:00.716Z,90.60
2022-10-14T18:29:04.719Z,90.70
2022-10-14T18:31:16.127Z,90.40
2022-10-14T18:33:22.650Z,90.20
2022-10-14T18:35:26.851Z,90.30
2022-10-14T18:37:35.593Z,90.50
2022-10-14T18:39:39.329Z,90.90
2022-10-14T18:41:44.934Z,90.70
2022-10-14T18:43:53.140Z,90.70
2022-10-14T18:46:14.757Z,90.70
2022-10-14T18:48:22.883Z,91.10
2022-10-14T18:50:31.699Z,91.00
2022-10-14T18:52:35.467Z,90.70
2022-10-14T18:54:39.441Z,90.30
2022-10-14T18:56:45.537Z,90.40
2022-10-14T18:58:50.810Z,90.30
2022-10-14T19:00:55.196Z,90.70
2022-10-14T19:03:06.217Z,90.40
2022-10-14T19:05:10.249Z,90.60
2022-10-14T19:07:14.599Z,90.40
2022-10-14T19:09:30.845Z,90.70
2022-10-14T19:11:35.255Z,90.70
2022-10-14T19:13:40.787Z,90.70
2022-10-14T19:15:53.714Z,90.70
2022-10-14T19:17:59.719Z,91.10
2022-10-14T19:20:03.720Z,91.20
2022-10-14T19:22:13.553Z,90.90
2022-10-14T19:24:17.855Z,91.30
2022-10-14T19:26:22.831Z,91.20
2022-10-14T19:28:30.763Z,91.40
2022-10-14T19:30:34.890Z,91.40
2022-10-14T19:32:38.856Z,91.70
2022-10-14T19:34:50.086Z,91.70
2022-10-14T19:36:54.135Z,92.10
2022-10-14T19:38:59.704Z,92.60
2022-10-14T19:41:07.797Z,93.20
2022-10-14T19:43:13.134Z,93.70
2022-10-14T19:45:16.911Z,94.20
2022-10-14T19:47:25.375Z,94.80
2022-10-14T19:49:29.725Z,95.10
2022-10-14T19:51:34.412Z,93.90
2022-10-14T19:53:42.745Z,93.80
2022-10-14T19:55:46.634Z,93.10
2022-10-14T19:57:50.479Z,93.50
2022-10-14T19:59:59.195Z,93.80
2022-10-14T20:02:03.093Z,94.20
2022-10-14T20:04:07.906Z,94.40
2022-10-14T20:06:16.014Z,94.60
2022-10-14T20:08:19.821Z,94.90
2022-10-14T20:10:25.701Z,94.70
2022-10-14T20:12:33.839Z,94.50
2022-10-14T20:14:37.654Z,94.50
2022-10-14T20:16:41.543Z,94.60
2022-10-14T20:18:51.658Z,95.00
2022-10-14T20:20:58.248Z,95.10
2022-10-14T20:23:03.659Z,95.40
2022-10-14T20:25:17.656Z,95.20
2022-10-14T20:27:22.300Z,95.30
2022-10-14T20:29:28.079Z,95.90
2022-10-14T20:31:37.037Z,95.80
2022-10-14T20:33:42.458Z,96.00
2022-10-14T20:36:17.494Z,95.80
2022-10-14T20:38:33.408Z,95.90
2022-10-14T20:40:37.360Z,95.80
2022-10-14T20:42:41.578Z,95.20
2022-10-14T20:44:49.968Z,94.80
2022-10-14T20:46:53.979Z,94.50
2022-10-14T20:48:58.355Z,94.20
2022-10-14T20:51:07.705Z,93.30
2022-10-14T20:53:11.822Z,93.10
2022-10-14T20:55:16.289Z,93.20
2022-10-14T20:57:25.741Z,93.20
2022-10-14T20:59:29.696Z,93.30
2022-10-14T21:01:34.693Z,94.00
2022-10-14T21:03:41.873Z,94.40
2022-10-14T21:05:45.869Z,93.80
2022-10-14T21:07:50.332Z,93.40
2022-10-14T21:09:58.711Z,93.80
2022-10-14T21:12:15.691Z,93.60
2022-10-14T21:14:30.806Z,92.90
2022-10-14T21:16:39.344Z,92.80
2022-10-14T21:18:53.721Z,92.80
2022-10-14T21:21:02.092Z,92.60
2022-10-14T21:23:15.699Z,92.10
2022-10-14T21:25:19.628Z,92.10
2022-10-14T21:27:43.225Z,92.10
2022-10-14T21:29:49.357Z,92.10
2022-10-14T21:31:53.324Z,92.40
2022-10-14T21:34:02.590Z,92.90
2022-10-14T21:36:14.919Z,92.70
2022-10-14T21:38:20.136Z,93.20
2022-10-14T21:40:24.241Z,93.30
2022-10-14T21:42:30.266Z,93.40
2022-10-14T21:44:34.316Z,93.70
2022-10-14T21:46:38.660Z,93.50
2022-10-14T21:48:47.363Z,93.70
2022-10-14T21:50:51.974Z,93.70
2022-10-14T21:52:56.041Z,94.30
2022-10-14T21:55:02.490Z,94.50
2022-10-14T21:57:19.648Z,94.80
2022-10-14T21:59:28.507Z,94.70
2022-10-14T22:01:37.027Z,94.80
2022-10-14T22:03:41.531Z,94.50
2022-10-14T22:05:45.551Z,94.90
2022-10-14T22:07:54.285Z,95.50
2022-10-14T22:10:01.603Z,95.80
2022-10-14T22:12:07.013Z,95.40
2022-10-14T22:14:19.111Z,94.80
2022-10-14T22:16:26.146Z,94.90
2022-10-14T22:18:30.399Z,94.80
2022-10-14T22:20:40.421Z,94.90
2022-10-14T22:22:44.661Z,94.90
2022-10-14T22:24:49.036Z,95.00
2022-10-14T22:26:58.189Z,94.80
2022-10-14T22:29:13.326Z,94.60
2022-10-14T22:31:20.482Z,95.30
2022-10-14T22:33:29.249Z,94.80
2022-10-14T22:35:35.112Z,94.50
2022-10-14T22:37:41.261Z,94.90
2022-10-14T22:39:51.830Z,94.50
2022-10-14T22:42:00.387Z,94.80
2022-10-14T22:44:05.523Z,94.60
2022-10-14T22:46:15.050Z,94.60
2022-10-14T22:48:19.184Z,95.10
2022-10-14T22:50:24.426Z,95.00
2022-10-14T22:52:33.020Z,95.30
2022-10-14T22:54:39.915Z,94.90
2022-10-14T22:56:44.082Z,94.90
2022-10-14T22:59:00.215Z,95.40
2022-10-14T23:01:15.308Z,94.60
2022-10-14T23:03:19.624Z,95.70
2022-10-14T23:05:30.924Z,95.40
2022-10-14T23:07:41.094Z,96.30
2022-10-14T23:09:46.594Z,96.40
2022-10-14T23:11:57.613Z,96.80
2022-10-14T23:14:04.637Z,96.70
2022-10-14T23:16:15.056Z,96.20
2022-10-14T23:18:20.686Z,96.20
2022-10-14T23:20:34.320Z,96.20
2022-10-14T23:22:41.374Z,95.30
2022-10-14T23:24:46.121Z,95.40
2022-10-14T23:26:51.012Z,95.80
2022-10-14T23:28:56.588Z,95.60
2022-10-14T23:31:04.983Z,95.80
2022-10-14T23:33:11.795Z,96.00
2022-10-14T23:35:16.025Z,96.30
2022-10-14T23:37:22.370Z,97.10
2022-10-14T23:39:28.616Z,97.20
2022-10-14T23:41:32.545Z,97.40
2022-10-14T23:43:40.909Z,97.20
2022-10-14T23:45:45.294Z,97.20
2022-10-14T23:47:51.066Z,97.10
2022-10-14T23:49:59.975Z,97.10
2022-10-14T23:52:05.906Z,97.20
2022-10-14T23:54:11.378Z,97.30
2022-10-14T23:56:19.598Z,97.60
2022-10-14T23:58:23.759Z,97.90
